Time;durP1;ratioP1;P1;durP2;ratioP2;P2;SDS_P1;SDS_P2;PMS_P1;PMS_P2;Temp;Humidity;BMP_temperature;BMP_pressure;BME280_temperature;BME280_humidity;BME280_pressure;Samples;Min_cycle;Max_cycle;Signal;HPM_P1;HPM_P2
2021/12/22 00:00:19;;;;;;;25.67;13.30;;;;;;;6.43;80.42;101267.78;4952202;29;20466;-85
2021/12/22 00:02:48;;;;;;;32.95;12.90;;;;;;;6.45;80.60;101272.97;4935994;29;20051;-84
2021/12/22 00:05:28;;;;;;;30.45;11.65;;;;;;;6.42;80.34;101282.63;4932451;28;20841;-83
2021/12/22 00:07:55;;;;;;;26.33;11.73;;;;;;;6.44;80.28;101276.81;4972516;28;20052;-84
2021/12/22 00:10:22;;;;;;;28.38;11.93;;;;;;;6.43;80.29;101267.78;4941203;28;20052;-84
2021/12/22 00:12:50;;;;;;;29.80;14.77;;;;;;;6.44;80.49;101268.56;4955125;28;20757;-84
2021/12/22 00:15:18;;;;;;;27.20;13.73;;;;;;;6.42;80.32;101255.13;4972183;28;20050;-84
2021/12/22 00:17:45;;;;;;;25.23;12.57;;;;;;;6.42;80.36;101255.13;4973048;28;20382;-84
2021/12/22 00:20:14;;;;;;;30.60;13.15;;;;;;;6.42;80.02;101268.88;4954309;28;20055;-84
2021/12/22 00:22:41;;;;;;;29.88;12.35;;;;;;;6.41;80.12;101253.50;4971381;28;20438;-84
2021/12/22 00:25:08;;;;;;;33.75;12.55;;;;;;;6.40;79.97;101254.63;4954009;28;20059;-84
2021/12/22 00:27:35;;;;;;;30.17;12.82;;;;;;;6.39;80.22;101255.75;4963303;28;20050;-84
2021/12/22 00:30:03;;;;;;;26.52;11.07;;;;;;;6.39;80.17;101250.25;4952661;28;20372;-84
2021/12/22 00:32:32;;;;;;;25.80;11.52;;;;;;;6.40;80.02;101235.38;4953968;28;20042;-84
2021/12/22 00:34:59;;;;;;;31.10;12.48;;;;;;;6.38;80.09;101226.59;4935856;29;20058;-84
2021/12/22 00:37:28;;;;;;;29.83;13.35;;;;;;;6.40;80.05;101229.06;4955092;28;20134;-84
2021/12/22 00:39:56;;;;;;;32.75;12.50;;;;;;;6.38;80.23;101221.09;4953613;28;20046;-84
2021/12/22 00:42:24;;;;;;;30.55;12.88;;;;;;;6.37;79.99;101208.50;4972434;28;20077;-84
2021/12/22 00:44:54;;;;;;;28.58;12.68;;;;;;;6.37;79.90;101213.16;4970096;28;20122;-84
2021/12/22 00:47:24;;;;;;;26.52;11.95;;;;;;;6.33;79.74;101198.41;4970837;28;20042;-84
2021/12/22 00:49:52;;;;;;;35.88;11.82;;;;;;;6.33;79.97;101190.16;4971229;28;20062;-84
2021/12/22 00:52:19;;;;;;;27.95;12.48;;;;;;;6.30;80.04;101188.81;4971641;28;20039;-84
2021/12/22 00:54:46;;;;;;;33.67;13.02;;;;;;;6.29;80.01;101203.69;4970008;28;20041;-83
2021/12/22 00:57:15;;;;;;;32.35;15.23;;;;;;;6.29;80.09;101200.94;4971917;28;20066;-85
2021/12/22 00:59:44;;;;;;;29.13;12.10;;;;;;;6.31;80.17;101186.88;4960538;28;20047;-84
2021/12/22 01:02:12;;;;;;;28.58;11.98;;;;;;;6.30;80.06;101183.31;4952167;28;20138;-84
2021/12/22 01:04:39;;;;;;;25.33;13.35;;;;;;;6.30;79.82;101174.28;4969636;28;20082;-85
2021/12/22 01:07:06;;;;;;;33.67;12.95;;;;;;;6.29;79.98;101181.69;4970245;28;20058;-82
2021/12/22 01:09:34;;;;;;;23.10;11.40;;;;;;;6.31;80.00;101167.63;4971766;28;20121;-84
2021/12/22 01:12:01;;;;;;;24.92;13.43;;;;;;;6.30;80.01;101160.53;4971107;28;20090;-84
2021/12/22 01:14:28;;;;;;;25.45;11.85;;;;;;;6.32;79.93;101172.84;4958034;28;20586;-84
2021/12/22 01:17:00;;;;;;;28.52;12.18;;;;;;;6.31;79.74;101154.72;4960494;28;20372;-84
2021/12/22 01:19:43;;;;;;;33.55;12.55;;;;;;;6.30;79.57;101147.56;4961148;28;20051;-84
2021/12/22 01:22:27;;;;;;;29.33;13.88;;;;;;;6.27;79.76;101145.47;4978077;28;20505;-85
2021/12/22 01:25:02;;;;;;;23.77;11.73;;;;;;;6.26;79.95;101152.06;4944412;28;20047;-84
2021/12/22 01:27:38;;;;;;;28.35;11.52;;;;;;;6.21;79.30;101132.94;4969089;28;20066;-84
2021/12/22 01:30:12;;;;;;;29.73;12.63;;;;;;;6.19;79.23;101124.19;4977784;28;20043;-84
2021/12/22 01:32:40;;;;;;;27.67;12.80;;;;;;;6.17;79.69;101125.63;4960210;28;20049;-84
2021/12/22 01:35:09;;;;;;;28.13;12.48;;;;;;;6.14;79.35;101122.34;4977914;28;20051;-84
2021/12/22 01:37:36;;;;;;;22.48;10.93;;;;;;;6.12;79.26;101112.75;4956719;28;20055;-84
2021/12/22 01:40:05;;;;;;;24.88;11.27;;;;;;;6.09;79.36;101107.88;4972211;28;20479;-84
2021/12/22 01:42:32;;;;;;;24.27;10.27;;;;;;;6.09;79.38;101103.19;4960635;28;20069;-84
2021/12/22 01:50:35;;;;;;;23.40;11.10;;;;;;;6.08;79.12;101111.75;4978103;28;20125;-84
2021/12/22 01:53:21;;;;;;;26.25;9.88;;;;;;;6.10;79.28;101098.53;4978104;28;20069;-84
2021/12/22 01:56:18;;;;;;;19.02;9.95;;;;;;;6.07;79.22;101082.63;4960436;28;20043;-84
2021/12/22 01:58:48;;;;;;;20.80;11.30;;;;;;;6.10;79.10;101098.53;4978094;28;20046;-84
2021/12/22 02:01:16;;;;;;;20.45;10.40;;;;;;;6.11;79.15;101089.16;4975732;28;20070;-84
2021/12/22 02:03:45;;;;;;;20.58;10.52;;;;;;;6.09;78.92;101080.38;4960026;28;20447;-84
2021/12/22 02:06:13;;;;;;;19.90;9.38;;;;;;;6.06;79.16;101075.53;4972837;28;20039;-84
2021/12/22 02:08:41;;;;;;;27.23;10.88;;;;;;;6.06;79.04;101064.53;4970119;28;20049;-84
2021/12/22 02:11:08;;;;;;;25.10;11.10;;;;;;;6.03;79.20;101065.16;4978830;28;20378;-84
2021/12/22 02:13:39;;;;;;;23.02;10.60;;;;;;;6.02;79.43;101058.81;4977064;28;20038;-84
2021/12/22 02:16:13;;;;;;;26.30;10.75;;;;;;;6.01;79.38;101067.41;4958948;28;20082;-84
2021/12/22 02:18:46;;;;;;;26.08;11.20;;;;;;;6.00;79.48;101057.50;4959752;28;20047;-84
2021/12/22 02:21:15;;;;;;;21.23;9.95;;;;;;;5.98;79.18;101060.53;4975740;28;20129;-84
2021/12/22 02:23:42;;;;;;;19.90;9.73;;;;;;;5.97;79.42;101061.69;4959982;28;20070;-84
2021/12/22 02:26:15;;;;;;;34.17;15.27;;;;;;;5.97;79.33;101069.13;4973510;28;20178;-84
2021/12/22 02:28:49;;;;;;;26.05;10.07;;;;;;;5.96;79.14;101075.72;4950276;28;20061;-84
2021/12/22 02:31:19;;;;;;;23.65;11.70;;;;;;;5.97;79.33;101094.66;4963538;28;20483;-84
2021/12/22 02:33:49;;;;;;;20.48;10.25;;;;;;;6.00;79.46;101087.75;4974415;28;20042;-84
2021/12/22 02:38:47;;;;;;;21.67;11.18;;;;;;;6.04;79.40;101062.06;4973349;28;20066;-84
2021/12/22 02:41:17;;;;;;;21.48;11.07;;;;;;;6.05;79.51;101057.41;4937891;29;20054;-84
2021/12/22 02:43:49;;;;;;;24.92;12.70;;;;;;;6.03;79.68;101054.97;4970458;28;20906;-84
2021/12/22 02:46:26;;;;;;;27.08;11.25;;;;;;;6.03;79.83;101043.16;4970940;28;20053;-84
2021/12/22 02:48:53;;;;;;;19.65;11.02;;;;;;;6.00;79.76;101054.75;4974451;28;20039;-84
2021/12/22 02:51:20;;;;;;;29.25;12.18;;;;;;;5.99;79.78;101053.13;4956556;28;20074;-84
2021/12/22 03:04:20;;;;;;;30.00;13.45;;;;;;;5.98;80.07;101051.50;4956169;28;20101;-84
2021/12/22 03:07:12;;;;;;;19.13;10.95;;;;;;;5.98;80.38;101046.03;4954513;28;20658;-83
2021/12/22 03:09:35;;;;;;;32.22;13.13;;;;;;;5.95;80.38;101033.72;4971917;28;20037;-84
2021/12/22 03:12:05;;;;;;;25.33;12.10;;;;;;;5.94;80.52;101034.81;4967640;28;20563;-84
2021/12/22 03:14:32;;;;;;;22.40;12.20;;;;;;;5.92;80.28;101033.50;4939092;28;20578;-83
2021/12/22 03:16:59;;;;;;;33.53;13.30;;;;;;;5.90;80.53;101028.31;4939645;28;20093;-84
2021/12/22 03:19:30;;;;;;;31.42;13.27;;;;;;;5.86;80.47;101021.81;4972998;28;20039;-84
2021/12/22 03:22:03;;;;;;;21.52;12.52;;;;;;;5.84;80.40;101029.50;4940681;28;20072;-84
2021/12/22 03:24:32;;;;;;;31.85;14.05;;;;;;;5.83;80.31;101032.53;4955142;28;20045;-83
2021/12/22 03:27:02;;;;;;;40.40;14.75;;;;;;;5.81;80.37;101023.81;4985365;28;20179;-83
2021/12/22 03:29:31;;;;;;;25.15;13.13;;;;;;;5.76;80.89;101019.25;4974702;28;20046;-84
2021/12/22 03:31:59;;;;;;;27.70;13.18;;;;;;;5.74;80.64;101015.16;4939775;28;20043;-83
2021/12/22 03:34:25;;;;;;;26.85;13.40;;;;;;;5.74;80.50;101023.41;4971795;28;20047;-83
2021/12/22 03:36:53;;;;;;;32.13;15.30;;;;;;;5.71;80.79;101015.78;4952261;28;20383;-84
2021/12/22 03:39:20;;;;;;;24.33;13.30;;;;;;;5.69;80.74;101020.78;4941853;28;20066;-84
2021/12/22 03:41:48;;;;;;;27.05;12.88;;;;;;;5.67;80.71;101009.25;4955933;28;20034;-84
2021/12/22 03:44:15;;;;;;;33.50;14.82;;;;;;;5.64;80.77;101004.41;4971795;28;20039;-84
2021/12/22 03:46:42;;;;;;;36.20;15.05;;;;;;;5.61;80.37;100996.78;4970251;28;20042;-84
2021/12/22 03:49:11;;;;;;;26.33;13.52;;;;;;;5.56;80.83;101000.41;4972777;28;20046;-84
2021/12/22 03:51:39;;;;;;;29.40;14.52;;;;;;;5.52;80.46;101005.72;4972003;28;20035;-83
2021/12/22 03:54:08;;;;;;;24.45;12.63;;;;;;;5.49;79.96;101000.84;4972869;28;20086;-83
2021/12/22 03:56:36;;;;;;;33.40;13.80;;;;;;;5.49;80.15;101011.81;4970872;28;20049;-84
2021/12/22 03:59:04;;;;;;;26.25;13.93;;;;;;;5.49;80.54;101006.31;4955376;28;20034;-83
2021/12/22 04:01:31;;;;;;;34.55;14.98;;;;;;;5.51;80.05;100992.28;4971434;28;20359;-83
2021/12/22 04:04:03;;;;;;;27.65;14.13;;;;;;;5.51;80.03;100995.84;4955215;28;20097;-84
2021/12/22 04:06:30;;;;;;;33.55;15.02;;;;;;;5.52;80.03;100983.75;4972200;28;20103;-84
2021/12/22 04:08:56;;;;;;;24.05;12.60;;;;;;;5.51;80.10;100993.09;4940851;28;20129;-84
2021/12/22 04:11:23;;;;;;;36.35;15.13;;;;;;;5.49;80.00;101005.50;4970871;28;20117;-84
2021/12/22 04:13:50;;;;;;;30.73;12.88;;;;;;;5.49;79.74;101003.56;4952855;28;20047;-83
2021/12/22 04:16:17;;;;;;;31.25;13.57;;;;;;;5.49;79.82;101005.50;4968223;28;20382;-83
2021/12/22 04:18:44;;;;;;;27.52;12.95;;;;;;;5.48;79.63;101004.69;4960873;28;20483;-84
2021/12/22 04:21:11;;;;;;;31.23;12.93;;;;;;;5.49;79.69;100989.03;4938802;28;20047;-84
2021/12/22 04:23:38;;;;;;;22.15;10.73;;;;;;;5.48;79.79;100987.41;4953090;28;20125;-83
2021/12/22 04:26:04;;;;;;;31.50;12.43;;;;;;;5.49;80.02;100981.59;4959308;28;20048;-83
2021/12/22 04:28:32;;;;;;;31.55;13.77;;;;;;;5.49;79.81;100986.28;4983767;28;20049;-84
2021/12/22 04:30:58;;;;;;;28.50;13.73;;;;;;;5.52;80.00;100997.47;4971754;28;20031;-84
2021/12/22 04:33:25;;;;;;;27.80;14.10;;;;;;;5.54;79.98;100987.00;4962127;28;20415;-84
2021/12/22 04:35:55;;;;;;;38.67;14.70;;;;;;;5.54;79.81;100987.00;4955229;28;20060;-83
2021/12/22 04:38:22;;;;;;;26.50;13.65;;;;;;;5.59;80.05;100990.78;4971978;28;20049;-84
2021/12/22 04:40:50;;;;;;;28.02;13.77;;;;;;;5.59;79.99;100977.03;4955528;28;20054;-84
2021/12/22 04:43:17;;;;;;;32.38;14.88;;;;;;;5.62;79.94;100971.72;4969307;28;20137;-84
2021/12/22 04:45:44;;;;;;;22.90;12.32;;;;;;;5.63;79.93;100978.03;4969814;28;20053;-84
2021/12/22 04:48:11;;;;;;;28.17;11.80;;;;;;;5.65;80.24;100978.53;4953890;28;20049;-83
2021/12/22 04:50:37;;;;;;;29.48;14.32;;;;;;;5.65;80.41;100971.13;4972244;28;20047;-84
2021/12/22 04:53:21;;;;;;;29.13;13.00;;;;;;;5.66;80.30;100967.25;4969410;28;20044;-83
2021/12/22 04:55:48;;;;;;;33.80;14.80;;;;;;;5.66;80.39;100961.78;4954778;28;20423;-84
2021/12/22 04:58:14;;;;;;;43.17;17.25;;;;;;;5.68;81.00;100953.22;4954365;28;20074;-84
2021/12/22 05:00:42;;;;;;;37.22;19.00;;;;;;;5.68;80.66;100947.72;4968155;28;20126;-84
2021/12/22 05:03:09;;;;;;;37.25;16.45;;;;;;;5.69;81.20;100943.88;4959672;28;20560;-83
2021/12/22 05:05:36;;;;;;;37.50;15.43;;;;;;;5.67;80.99;100937.84;4947940;29;20039;-84
2021/12/22 05:08:03;;;;;;;36.80;16.17;;;;;;;5.68;81.03;100936.72;4957360;28;20364;-84
2021/12/22 05:10:30;;;;;;;32.78;17.40;;;;;;;5.69;81.24;100938.38;4956128;28;20035;-83
2021/12/22 05:12:57;;;;;;;32.30;15.52;;;;;;;5.70;81.36;100929.00;4934456;29;20392;-83
2021/12/22 05:15:25;;;;;;;38.13;16.27;;;;;;;5.73;81.59;100928.38;4934635;29;20058;-83
2021/12/22 05:20:23;;;;;;;38.85;17.80;;;;;;;5.74;81.33;100914.34;4951619;29;20047;-84
2021/12/22 05:22:51;;;;;;;44.13;16.67;;;;;;;5.75;81.85;100915.97;4944905;29;20665;-83
2021/12/22 05:25:18;;;;;;;38.50;15.82;;;;;;;5.77;82.09;100912.91;4934906;29;20483;-84
2021/12/22 05:27:44;;;;;;;38.92;16.92;;;;;;;5.77;82.03;100902.72;4934764;29;20107;-83
2021/12/22 05:30:12;;;;;;;38.50;16.30;;;;;;;5.77;82.03;100901.94;4935065;29;20039;-83
2021/12/22 05:32:40;;;;;;;43.25;17.10;;;;;;;5.76;82.17;100892.06;4935559;29;20046;-83
2021/12/22 05:35:09;;;;;;;41.40;17.27;;;;;;;5.79;82.20;100886.75;4952061;29;20043;-83
2021/12/22 05:37:37;;;;;;;26.48;13.38;;;;;;;5.80;82.29;100884.84;4950929;29;20501;-83
2021/12/22 05:40:06;;;;;;;30.30;13.98;;;;;;;5.78;82.18;100874.13;4952500;29;20559;-83
2021/12/22 05:42:33;;;;;;;27.83;13.98;;;;;;;5.79;82.19;100877.69;4949683;28;20039;-84
2021/12/22 05:44:59;;;;;;;30.52;13.20;;;;;;;5.79;82.15;100877.69;4919029;29;20039;-84
2021/12/22 05:47:26;;;;;;;35.35;13.23;;;;;;;5.80;82.51;100879.34;4935139;29;20497;-84
2021/12/22 05:49:53;;;;;;;31.90;14.20;;;;;;;5.82;82.43;100882.59;4934917;29;20039;-83
2021/12/22 05:52:19;;;;;;;42.30;14.20;;;;;;;5.80;82.56;100863.66;4934461;29;20432;-83
2021/12/22 05:54:46;;;;;;;31.63;12.45;;;;;;;5.80;82.74;100868.34;4952288;29;20048;-83
2021/12/22 05:57:13;;;;;;;34.80;14.05;;;;;;;5.81;82.47;100865.28;4938522;29;20770;-83
2021/12/22 05:59:40;;;;;;;36.13;14.27;;;;;;;5.83;82.67;100860.28;4952842;28;20053;-83
2021/12/22 06:02:07;;;;;;;34.65;14.98;;;;;;;5.83;82.67;100871.25;4932708;29;20050;-84
2021/12/22 06:04:34;;;;;;;23.88;12.43;;;;;;;5.85;82.82;100876.50;4947603;28;20047;-83
2021/12/22 06:07:01;;;;;;;39.47;14.88;;;;;;;5.87;82.82;100871.50;4957784;28;20035;-83
2021/12/22 06:09:28;;;;;;;36.15;14.85;;;;;;;5.89;82.78;100861.00;4957754;28;20051;-83
2021/12/22 06:11:54;;;;;;;37.15;14.18;;;;;;;5.92;82.94;100876.88;4963755;28;20043;-83
2021/12/22 06:14:22;;;;;;;39.95;13.68;;;;;;;5.94;83.20;100872.69;4973777;28;20057;-83
2021/12/22 06:16:48;;;;;;;37.90;13.07;;;;;;;5.98;82.75;100881.91;4958453;28;20141;-83
2021/12/22 06:19:15;;;;;;;31.88;13.45;;;;;;;5.99;82.94;100883.56;4973477;28;20038;-83
2021/12/22 06:21:42;;;;;;;27.40;12.50;;;;;;;6.00;83.33;100878.88;4974415;28;20043;-83
2021/12/22 06:24:09;;;;;;;44.25;15.02;;;;;;;6.02;83.35;100874.69;4971304;28;20049;-83
2021/12/22 06:26:36;;;;;;;33.33;14.57;;;;;;;6.05;83.26;100887.00;4972792;28;20085;-83
2021/12/22 06:29:03;;;;;;;35.05;13.98;;;;;;;6.05;82.99;100887.00;4967729;28;20125;-84
2021/12/22 06:31:30;;;;;;;24.48;11.77;;;;;;;6.06;83.06;100872.16;4955720;28;20117;-83
2021/12/22 06:33:56;;;;;;;26.38;12.30;;;;;;;6.08;83.15;100881.69;4971769;28;20062;-83
2021/12/22 06:36:23;;;;;;;28.92;14.30;;;;;;;6.09;83.50;100860.50;4972259;28;20414;-83
2021/12/22 06:38:50;;;;;;;29.23;12.75;;;;;;;6.10;83.50;100853.88;4972148;28;20047;-83
2021/12/22 06:41:17;;;;;;;29.25;12.45;;;;;;;6.09;83.88;100864.06;4971770;28;20486;-83
2021/12/22 06:43:44;;;;;;;29.85;11.07;;;;;;;6.08;84.13;100875.38;4969602;28;20471;-84
2021/12/22 06:46:11;;;;;;;26.55;11.38;;;;;;;6.04;84.45;100868.88;4952506;29;20751;-84
2021/12/22 06:48:38;;;;;;;27.85;12.45;;;;;;;6.01;84.65;100886.00;4955898;28;20038;-83
2021/12/22 06:51:06;;;;;;;34.17;12.70;;;;;;;5.99;84.95;100880.00;4972497;28;20043;-83
2021/12/22 06:53:36;;;;;;;32.28;13.30;;;;;;;5.98;85.38;100867.41;4971251;28;20138;-82
2021/12/22 06:56:04;;;;;;;31.75;12.60;;;;;;;5.98;85.73;100886.63;4955402;28;20039;-84
2021/12/22 06:58:30;;;;;;;37.30;14.00;;;;;;;5.96;85.46;100884.19;4956138;28;20034;-83
2021/12/22 07:00:59;;;;;;;28.02;13.68;;;;;;;5.94;85.93;100875.44;4970010;28;20918;-83
2021/12/22 07:03:26;;;;;;;30.40;15.27;;;;;;;5.93;85.82;100873.00;4952765;28;20202;-82
2021/12/22 07:05:53;;;;;;;41.30;13.20;;;;;;;5.92;85.71;100871.38;4956325;28;20074;-82
2021/12/22 07:08:20;;;;;;;33.35;13.70;;;;;;;5.91;86.09;100856.00;4969707;28;20038;-82
2021/12/22 07:10:47;;;;;;;30.90;11.93;;;;;;;5.87;86.19;100836.59;4955863;28;20137;-82
2021/12/22 07:13:14;;;;;;;36.50;13.20;;;;;;;5.86;86.59;100820.41;4939339;28;20050;-82
2021/12/22 07:15:43;;;;;;;39.22;12.45;;;;;;;5.84;86.74;100806.16;4955742;28;20364;-82
2021/12/22 07:18:13;;;;;;;41.90;14.15;;;;;;;5.81;86.34;100804.03;4956599;28;20082;-82
2021/12/22 07:20:41;;;;;;;33.95;12.25;;;;;;;5.76;87.20;100809.63;4943732;28;20069;-82
2021/12/22 07:23:07;;;;;;;37.13;14.32;;;;;;;5.72;87.50;100825.94;4945742;28;20039;-82
2021/12/22 07:25:35;;;;;;;29.05;13.02;;;;;;;5.70;87.81;100814.44;4954843;28;20483;-83
2021/12/22 07:28:02;;;;;;;28.67;13.00;;;;;;;5.67;88.23;100814.25;4973447;28;20059;-82
2021/12/22 07:30:29;;;;;;;34.83;12.60;;;;;;;5.66;88.65;100818.94;4950883;28;20053;-83
2021/12/22 07:32:59;;;;;;;35.00;13.88;;;;;;;5.68;88.84;100826.88;4940567;28;20038;-82
2021/12/22 07:35:29;;;;;;;35.35;14.30;;;;;;;5.67;89.13;100827.97;4970979;28;20035;-84
2021/12/22 07:38:01;;;;;;;34.53;13.52;;;;;;;5.68;88.76;100837.84;4973885;28;20439;-81
2021/12/22 07:40:29;;;;;;;43.92;13.40;;;;;;;5.71;89.30;100842.72;4955560;28;20039;-82
2021/12/22 07:42:56;;;;;;;31.88;12.48;;;;;;;5.70;89.03;100830.09;4970189;28;20394;-83
2021/12/22 07:45:22;;;;;;;30.15;11.88;;;;;;;5.71;89.29;100827.06;4971446;28;20043;-84
2021/12/22 07:47:49;;;;;;;33.75;12.38;;;;;;;5.69;89.51;100847.72;4977050;28;20046;-84
2021/12/22 07:50:16;;;;;;;30.13;13.27;;;;;;;5.70;89.75;100846.59;4967616;28;20034;-85
2021/12/22 07:52:43;;;;;;;36.47;13.48;;;;;;;5.68;89.74;100833.19;4963531;28;20089;-85
2021/12/22 07:55:11;;;;;;;39.05;13.40;;;;;;;5.71;89.53;100832.56;4972447;28;20042;-86
2021/12/22 07:57:38;;;;;;;27.83;13.30;;;;;;;5.73;89.39;100838.53;4974110;28;20053;-87
2021/12/22 08:00:07;;;;;;;32.15;12.43;;;;;;;5.73;89.99;100824.00;4970959;28;20133;-83
2021/12/22 08:02:36;;;;;;;38.08;12.25;;;;;;;5.74;89.64;100831.13;4970821;28;20491;-83
2021/12/22 08:05:04;;;;;;;27.40;12.10;;;;;;;5.73;89.81;100827.56;4954868;28;20074;-83
2021/12/22 08:07:31;;;;;;;33.92;12.55;;;;;;;5.71;90.39;100843.53;4971166;28;20495;-83
2021/12/22 08:09:58;;;;;;;28.00;12.77;;;;;;;5.72;90.52;100836.91;4969625;28;20053;-82
2021/12/22 08:12:25;;;;;;;35.90;11.57;;;;;;;5.71;90.26;100829.00;4970894;28;20038;-78
2021/12/22 08:14:51;;;;;;;42.97;14.57;;;;;;;5.72;90.60;100823.19;4951217;28;20085;-80
2021/12/22 08:17:27;;;;;;;38.38;13.35;;;;;;;5.71;90.80;100823.50;4964304;28;20121;-80
2021/12/22 08:19:54;;;;;;;29.85;12.38;;;;;;;5.71;90.55;100837.22;4972042;28;20541;-82
2021/12/22 08:22:21;;;;;;;30.38;11.57;;;;;;;5.74;90.77;100861.34;4952285;28;20147;-81
2021/12/22 08:24:50;;;;;;;27.83;12.23;;;;;;;5.76;90.80;100845.34;4971772;28;20475;-81
2021/12/22 08:27:18;;;;;;;37.53;12.30;;;;;;;5.77;91.20;100836.00;4958196;28;20057;-82
2021/12/22 08:29:45;;;;;;;32.35;12.25;;;;;;;5.77;90.90;100836.00;4973279;28;20039;-82
2021/12/22 08:32:12;;;;;;;24.58;11.85;;;;;;;5.77;91.30;100831.28;4955457;28;20045;-82
2021/12/22 08:34:41;;;;;;;33.80;12.20;;;;;;;5.77;91.52;100825.00;4971135;28;20411;-82
2021/12/22 08:39:57;;;;;;;30.98;12.40;;;;;;;5.78;91.70;100793.66;4962184;28;20097;-81
2021/12/22 08:42:25;;;;;;;27.45;11.45;;;;;;;5.78;91.97;100793.66;4955361;28;20687;-83
2021/12/22 08:44:52;;;;;;;32.75;13.57;;;;;;;5.77;92.10;100781.06;4973037;28;20039;-81
2021/12/22 08:47:20;;;;;;;33.35;12.43;;;;;;;5.76;92.42;100774.75;4955486;28;20047;-81
2021/12/22 08:49:47;;;;;;;28.27;12.18;;;;;;;5.75;92.39;100762.13;4972927;28;20038;-81
2021/12/22 08:52:14;;;;;;;25.80;10.52;;;;;;;5.74;92.73;100743.22;4954771;28;20134;-83
2021/12/22 08:54:41;;;;;;;28.88;9.73;;;;;;;5.76;92.81;100729.97;4972566;28;20035;-82
2021/12/22 08:57:08;;;;;;;28.35;10.10;;;;;;;5.73;92.72;100714.13;4971372;28;20046;-82
2021/12/22 08:59:35;;;;;;;28.65;9.70;;;;;;;5.73;92.88;100714.13;4985077;28;20049;-83
2021/12/22 09:02:02;;;;;;;29.13;10.73;;;;;;;5.76;92.78;100702.50;4958399;28;20058;-83
2021/12/22 09:04:30;;;;;;;25.45;9.95;;;;;;;5.75;93.14;100696.19;4959092;28;20521;-83
2021/12/22 09:06:57;;;;;;;26.27;9.27;;;;;;;5.77;92.60;100695.91;4946238;29;20039;-83
2021/12/22 09:09:24;;;;;;;22.52;9.15;;;;;;;5.78;93.09;100689.25;4935341;29;20043;-83
2021/12/22 09:11:51;;;;;;;25.40;8.35;;;;;;;5.78;92.92;100701.06;4935945;29;20045;-83
2021/12/22 09:14:19;;;;;;;25.20;9.13;;;;;;;5.79;93.16;100661.50;4919932;29;20137;-83
2021/12/22 09:16:46;;;;;;;28.00;9.40;;;;;;;5.81;93.71;100658.41;4953005;29;20126;-84
2021/12/22 09:19:13;;;;;;;28.58;9.35;;;;;;;5.82;93.94;100668.28;4936244;29;20091;-83
2021/12/22 09:21:40;;;;;;;21.40;7.93;;;;;;;5.85;93.79;100673.97;4936242;29;20049;-83
2021/12/22 09:24:08;;;;;;;18.00;7.63;;;;;;;5.87;93.52;100630.53;4935572;29;20043;-83
2021/12/22 09:26:35;;;;;;;19.40;7.57;;;;;;;5.88;93.84;100645.88;4954188;28;20135;-83
2021/12/22 09:29:03;;;;;;;20.17;7.53;;;;;;;5.89;94.18;100652.19;4935745;29;20039;-84
2021/12/22 09:31:31;;;;;;;28.67;8.68;;;;;;;5.91;94.78;100652.69;4951914;29;20658;-83
2021/12/22 09:33:58;;;;;;;28.42;7.60;;;;;;;5.93;94.70;100655.94;4953235;28;20031;-83
2021/12/22 09:36:24;;;;;;;19.92;7.32;;;;;;;5.96;94.37;100630.56;4955506;29;20043;-83
2021/12/22 09:38:51;;;;;;;28.55;8.57;;;;;;;5.98;94.41;100623.63;4955500;29;20047;-83
2021/12/22 09:41:18;;;;;;;28.10;7.43;;;;;;;5.99;94.82;100639.00;4937348;29;20047;-84
2021/12/22 09:43:45;;;;;;;16.73;7.15;;;;;;;6.00;94.63;100648.88;4951751;29;20071;-83
2021/12/22 09:46:17;;;;;;;19.98;7.45;;;;;;;6.01;94.18;100661.44;4939048;29;20058;-83
2021/12/22 09:53:46;;;;;;;32.53;7.55;;;;;;;6.01;94.40;100644.19;4956754;29;20124;-84
2021/12/22 09:56:16;;;;;;;17.65;6.60;;;;;;;6.03;94.40;100650.16;4955334;29;20067;-84
2021/12/22 09:58:44;;;;;;;26.30;7.75;;;;;;;6.04;93.97;100665.50;4965973;28;20054;-83
2021/12/22 10:01:12;;;;;;;19.92;6.78;;;;;;;6.04;93.96;100651.75;4938876;29;20075;-84
2021/12/22 10:03:40;;;;;;;19.50;6.47;;;;;;;6.02;93.51;100654.03;4956556;28;20108;-84
2021/12/22 10:06:07;;;;;;;20.98;6.95;;;;;;;6.03;93.75;100644.66;4955168;29;20035;-83
2021/12/22 10:08:36;;;;;;;16.50;5.78;;;;;;;6.02;93.82;100630.13;4939108;29;20051;-83
2021/12/22 10:11:11;;;;;;;29.73;9.88;;;;;;;6.04;93.66;100616.03;4956342;29;20464;-83
2021/12/22 10:13:44;;;;;;;18.13;6.13;;;;;;;6.04;93.47;100621.53;4955235;29;20530;-83
2021/12/22 10:16:22;;;;;;;28.60;7.18;;;;;;;6.03;93.43;100620.75;4955263;29;20804;-83
2021/12/22 10:19:03;;;;;;;19.38;7.03;;;;;;;6.04;93.65;100622.34;4954110;29;20130;-83
2021/12/22 10:21:33;;;;;;;17.08;6.93;;;;;;;6.04;93.65;100616.84;4954474;29;20483;-83
2021/12/22 10:24:05;;;;;;;19.40;7.22;;;;;;;6.03;93.89;100619.94;4955787;29;20039;-83
2021/12/22 10:26:34;;;;;;;20.75;7.65;;;;;;;6.04;93.85;100616.03;4947052;28;20129;-83
2021/12/22 10:29:05;;;;;;;24.95;7.55;;;;;;;6.05;94.12;100617.66;4974961;28;20101;-85
2021/12/22 10:31:46;;;;;;;23.40;8.48;;;;;;;6.06;93.80;100608.31;4975594;28;20073;-83
2021/12/22 10:34:17;;;;;;;18.52;7.78;;;;;;;6.10;93.88;100603.78;4943901;29;20130;-84
2021/12/22 10:36:46;;;;;;;33.27;10.90;;;;;;;6.09;93.92;100602.16;4954428;29;20094;-84
2021/12/22 10:39:31;;;;;;;24.45;8.07;;;;;;;6.09;93.93;100607.66;4938283;29;20074;-84
2021/12/22 10:42:02;;;;;;;14.95;7.30;;;;;;;6.12;93.80;100618.00;4938392;29;20076;-83
2021/12/22 10:44:55;;;;;;;24.70;10.60;;;;;;;6.15;94.24;100603.63;4954317;29;20126;-83
2021/12/22 10:47:34;;;;;;;26.95;8.38;;;;;;;6.20;93.81;100617.22;4933029;29;20059;-83
2021/12/22 10:50:07;;;;;;;23.08;9.07;;;;;;;6.22;93.33;100600.44;4944320;29;20047;-83
2021/12/22 10:52:35;;;;;;;21.50;7.40;;;;;;;6.22;93.53;100587.50;4955079;29;20047;-83
2021/12/22 10:55:11;;;;;;;29.85;7.95;;;;;;;6.19;93.70;100588.13;4937960;29;20071;-83
2021/12/22 10:57:42;;;;;;;16.52;7.20;;;;;;;6.19;93.81;100579.91;4953578;29;20391;-83
2021/12/22 11:00:21;;;;;;;18.42;7.88;;;;;;;6.19;94.06;100590.88;4955080;28;20051;-83
2021/12/22 11:03:08;;;;;;;25.35;7.45;;;;;;;6.18;94.20;100611.25;4954993;29;20046;-83
2021/12/22 11:05:47;;;;;;;21.92;8.80;;;;;;;6.20;94.35;100587.00;4957640;28;20051;-84
2021/12/22 11:08:24;;;;;;;27.05;10.45;;;;;;;6.17;94.55;100573.88;4974271;28;20547;-83
2021/12/22 11:10:52;;;;;;;18.17;8.15;;;;;;;6.18;94.47;100559.03;4957137;28;20101;-82
2021/12/22 11:13:22;;;;;;;25.52;9.25;;;;;;;6.20;94.12;100539.44;4974317;28;20089;-83
2021/12/22 11:15:50;;;;;;;25.63;10.48;;;;;;;6.20;94.59;100533.94;4974445;28;20119;-83
2021/12/22 11:18:34;;;;;;;22.75;7.53;;;;;;;6.18;94.52;100539.78;4957061;28;20043;-83
2021/12/22 11:21:10;;;;;;;29.13;11.50;;;;;;;6.19;94.38;100549.66;4974304;28;20097;-83
2021/12/22 11:23:37;;;;;;;29.98;10.50;;;;;;;6.22;93.84;100557.25;4972559;28;20471;-83
2021/12/22 11:26:04;;;;;;;21.38;8.77;;;;;;;6.24;94.16;100562.44;4978723;28;20048;-83
2021/12/22 11:28:34;;;;;;;17.85;8.27;;;;;;;6.25;94.26;100562.09;4991658;28;20039;-83
2021/12/22 11:31:03;;;;;;;23.27;8.63;;;;;;;6.26;94.28;100536.22;4992956;28;20143;-83
2021/12/22 11:33:31;;;;;;;25.45;10.68;;;;;;;6.28;93.93;100544.97;4975832;28;20525;-83
2021/12/22 11:36:00;;;;;;;21.58;9.13;;;;;;;6.29;94.27;100529.28;4975398;28;20505;-83
2021/12/22 11:38:29;;;;;;;24.83;8.68;;;;;;;6.28;94.37;100511.97;4992170;28;20042;-83
2021/12/22 11:41:08;;;;;;;28.45;9.52;;;;;;;6.30;94.48;100526.19;4972062;28;20046;-83
2021/12/22 11:43:37;;;;;;;27.25;9.32;;;;;;;6.32;94.08;100518.47;4972600;28;20092;-82
2021/12/22 11:46:05;;;;;;;22.30;8.85;;;;;;;6.34;94.51;100509.88;4972238;28;20526;-82
2021/12/22 11:48:34;;;;;;;26.55;9.07;;;;;;;6.34;93.92;100505.19;4972523;28;20039;-82
2021/12/22 11:51:01;;;;;;;22.02;8.60;;;;;;;6.38;94.25;100506.16;4972415;28;20074;-82
2021/12/22 11:53:51;;;;;;;21.00;8.75;;;;;;;6.39;94.06;100510.53;4972314;28;20531;-83
2021/12/22 11:56:34;;;;;;;21.15;7.95;;;;;;;6.42;94.18;100506.31;4969401;28;20383;-83